sensor_id;sensor_type;location;lat;lon;timestamp;P1;durP1;ratioP1;P2;durP2;ratioP2
8540;SDS011;4308;51.294;6.590;2023-04-03T00:00:51;11.57;;;6.17;;
8540;SDS011;4308;51.294;6.590;2023-04-03T00:03:19;8.33;;;5.70;;
8540;SDS011;4308;51.294;6.590;2023-04-03T00:05:46;10.83;;;5.60;;
8540;SDS011;4308;51.294;6.590;2023-04-03T00:08:14;11.73;;;5.70;;
8540;SDS011;4308;51.294;6.590;2023-04-03T00:10:42;9.23;;;5.70;;
8540;SDS011;4308;51.294;6.590;2023-04-03T00:13:10;7.83;;;5.97;;
8540;SDS011;4308;51.294;6.590;2023-04-03T00:15:38;11.87;;;6.60;;
8540;SDS011;4308;51.294;6.590;2023-04-03T00:18:06;9.53;;;6.10;;
8540;SDS011;4308;51.294;6.590;2023-04-03T00:20:34;8.17;;;6.50;;
8540;SDS011;4308;51.294;6.590;2023-04-03T00:23:02;9.77;;;6.70;;
8540;SDS011;4308;51.294;6.590;2023-04-03T00:25:29;12.20;;;7.30;;
8540;SDS011;4308;51.294;6.590;2023-04-03T00:27:57;11.00;;;6.83;;
8540;SDS011;4308;51.294;6.590;2023-04-03T00:30:24;10.03;;;7.80;;
8540;SDS011;4308;51.294;6.590;2023-04-03T00:32:52;9.80;;;6.93;;
8540;SDS011;4308;51.294;6.590;2023-04-03T00:35:20;13.60;;;7.83;;
8540;SDS011;4308;51.294;6.590;2023-04-03T00:37:50;13.40;;;8.27;;
8540;SDS011;4308;51.294;6.590;2023-04-03T00:40:18;14.87;;;8.77;;
8540;SDS011;4308;51.294;6.590;2023-04-03T00:42:47;17.07;;;8.30;;
8540;SDS011;4308;51.294;6.590;2023-04-03T00:48:17;12.37;;;8.07;;
8540;SDS011;4308;51.294;6.590;2023-04-03T00:50:45;14.27;;;10.33;;
8540;SDS011;4308;51.294;6.590;2023-04-03T00:53:15;16.50;;;10.13;;
8540;SDS011;4308;51.294;6.590;2023-04-03T00:55:44;15.57;;;10.90;;
8540;SDS011;4308;51.294;6.590;2023-04-03T00:58:12;15.07;;;10.07;;
8540;SDS011;4308;51.294;6.590;2023-04-03T01:00:41;13.97;;;9.43;;
8540;SDS011;4308;51.294;6.590;2023-04-03T01:03:11;13.43;;;8.50;;
8540;SDS011;4308;51.294;6.590;2023-04-03T01:05:38;11.73;;;7.70;;
8540;SDS011;4308;51.294;6.590;2023-04-03T01:08:06;11.73;;;7.47;;
8540;SDS011;4308;51.294;6.590;2023-04-03T01:10:34;9.07;;;7.00;;
8540;SDS011;4308;51.294;6.590;2023-04-03T01:13:02;10.83;;;7.20;;
8540;SDS011;4308;51.294;6.590;2023-04-03T01:15:44;11.30;;;6.20;;
8540;SDS011;4308;51.294;6.590;2023-04-03T01:18:11;12.83;;;7.10;;
8540;SDS011;4308;51.294;6.590;2023-04-03T01:20:46;11.33;;;6.90;;
8540;SDS011;4308;51.294;6.590;2023-04-03T01:23:21;12.47;;;6.93;;
8540;SDS011;4308;51.294;6.590;2023-04-03T01:25:52;12.23;;;7.10;;
8540;SDS011;4308;51.294;6.590;2023-04-03T01:33:18;8.80;;;6.57;;
8540;SDS011;4308;51.294;6.590;2023-04-03T01:35:46;10.63;;;7.17;;
8540;SDS011;4308;51.294;6.590;2023-04-03T01:38:13;9.20;;;6.33;;
8540;SDS011;4308;51.294;6.590;2023-04-03T01:40:41;9.57;;;6.80;;
8540;SDS011;4308;51.294;6.590;2023-04-03T01:43:08;11.97;;;7.30;;
8540;SDS011;4308;51.294;6.590;2023-04-03T01:45:36;10.23;;;6.47;;
8540;SDS011;4308;51.294;6.590;2023-04-03T01:48:04;13.57;;;7.13;;
8540;SDS011;4308;51.294;6.590;2023-04-03T01:50:31;10.10;;;7.03;;
8540;SDS011;4308;51.294;6.590;2023-04-03T01:52:59;10.10;;;7.40;;
8540;SDS011;4308;51.294;6.590;2023-04-03T01:55:26;7.33;;;6.60;;
8540;SDS011;4308;51.294;6.590;2023-04-03T01:57:54;13.50;;;7.17;;
8540;SDS011;4308;51.294;6.590;2023-04-03T02:00:22;12.83;;;8.17;;
8540;SDS011;4308;51.294;6.590;2023-04-03T02:02:49;12.43;;;7.23;;
8540;SDS011;4308;51.294;6.590;2023-04-03T02:05:17;11.67;;;7.73;;
8540;SDS011;4308;51.294;6.590;2023-04-03T02:07:44;13.20;;;7.43;;
8540;SDS011;4308;51.294;6.590;2023-04-03T02:10:12;10.13;;;6.83;;
8540;SDS011;4308;51.294;6.590;2023-04-03T02:12:40;11.87;;;7.40;;
8540;SDS011;4308;51.294;6.590;2023-04-03T02:15:07;10.43;;;5.63;;
8540;SDS011;4308;51.294;6.590;2023-04-03T02:17:35;15.20;;;6.20;;
8540;SDS011;4308;51.294;6.590;2023-04-03T02:20:03;8.87;;;5.07;;
8540;SDS011;4308;51.294;6.590;2023-04-03T02:22:31;7.53;;;5.23;;
8540;SDS011;4308;51.294;6.590;2023-04-03T02:24:58;9.20;;;5.77;;
8540;SDS011;4308;51.294;6.590;2023-04-03T02:27:26;5.67;;;4.10;;
8540;SDS011;4308;51.294;6.590;2023-04-03T02:29:54;6.83;;;4.97;;
8540;SDS011;4308;51.294;6.590;2023-04-03T02:32:21;4.57;;;3.63;;
8540;SDS011;4308;51.294;6.590;2023-04-03T02:34:49;5.20;;;3.57;;
8540;SDS011;4308;51.294;6.590;2023-04-03T02:37:17;5.93;;;3.90;;
8540;SDS011;4308;51.294;6.590;2023-04-03T02:39:44;9.97;;;5.60;;
8540;SDS011;4308;51.294;6.590;2023-04-03T02:42:12;8.87;;;4.53;;
8540;SDS011;4308;51.294;6.590;2023-04-03T02:44:39;6.37;;;4.10;;
8540;SDS011;4308;51.294;6.590;2023-04-03T02:47:07;6.50;;;4.40;;
8540;SDS011;4308;51.294;6.590;2023-04-03T02:49:34;8.33;;;4.43;;
8540;SDS011;4308;51.294;6.590;2023-04-03T02:52:02;5.53;;;4.07;;
8540;SDS011;4308;51.294;6.590;2023-04-03T02:54:30;6.73;;;4.00;;
8540;SDS011;4308;51.294;6.590;2023-04-03T02:56:57;5.00;;;3.73;;
8540;SDS011;4308;51.294;6.590;2023-04-03T02:59:25;8.83;;;4.60;;
8540;SDS011;4308;51.294;6.590;2023-04-03T03:01:52;13.30;;;4.13;;
8540;SDS011;4308;51.294;6.590;2023-04-03T03:04:20;3.07;;;2.70;;
8540;SDS011;4308;51.294;6.590;2023-04-03T03:06:47;5.93;;;3.60;;
8540;SDS011;4308;51.294;6.590;2023-04-03T03:09:15;8.10;;;3.37;;
8540;SDS011;4308;51.294;6.590;2023-04-03T03:11:42;7.77;;;3.93;;
8540;SDS011;4308;51.294;6.590;2023-04-03T03:14:10;7.17;;;3.77;;
8540;SDS011;4308;51.294;6.590;2023-04-03T03:16:38;6.17;;;4.20;;
8540;SDS011;4308;51.294;6.590;2023-04-03T03:19:05;4.87;;;3.30;;
8540;SDS011;4308;51.294;6.590;2023-04-03T03:21:33;5.50;;;3.83;;
8540;SDS011;4308;51.294;6.590;2023-04-03T03:24:00;5.37;;;2.53;;
8540;SDS011;4308;51.294;6.590;2023-04-03T03:26:28;6.83;;;3.23;;
8540;SDS011;4308;51.294;6.590;2023-04-03T03:28:55;3.90;;;2.83;;
8540;SDS011;4308;51.294;6.590;2023-04-03T03:31:23;4.87;;;2.83;;
8540;SDS011;4308;51.294;6.590;2023-04-03T03:33:50;6.17;;;2.43;;
8540;SDS011;4308;51.294;6.590;2023-04-03T03:36:18;3.63;;;3.00;;
8540;SDS011;4308;51.294;6.590;2023-04-03T03:38:45;4.80;;;2.30;;
8540;SDS011;4308;51.294;6.590;2023-04-03T03:41:13;2.60;;;2.27;;
8540;SDS011;4308;51.294;6.590;2023-04-03T03:43:41;2.47;;;2.23;;
8540;SDS011;4308;51.294;6.590;2023-04-03T03:46:08;4.47;;;2.73;;
8540;SDS011;4308;51.294;6.590;2023-04-03T03:48:36;4.47;;;1.80;;
8540;SDS011;4308;51.294;6.590;2023-04-03T03:51:03;7.17;;;3.27;;
8540;SDS011;4308;51.294;6.590;2023-04-03T03:53:31;5.37;;;2.43;;
8540;SDS011;4308;51.294;6.590;2023-04-03T03:55:58;4.20;;;2.53;;
8540;SDS011;4308;51.294;6.590;2023-04-03T03:58:26;4.53;;;2.33;;
8540;SDS011;4308;51.294;6.590;2023-04-03T04:00:53;5.60;;;2.40;;
8540;SDS011;4308;51.294;6.590;2023-04-03T04:03:21;3.20;;;2.47;;
8540;SDS011;4308;51.294;6.590;2023-04-03T04:05:48;3.17;;;2.47;;
8540;SDS011;4308;51.294;6.590;2023-04-03T04:08:16;4.00;;;2.00;;
8540;SDS011;4308;51.294;6.590;2023-04-03T04:10:43;3.03;;;2.57;;
8540;SDS011;4308;51.294;6.590;2023-04-03T04:13:11;5.13;;;2.97;;
8540;SDS011;4308;51.294;6.590;2023-04-03T04:15:39;4.00;;;2.43;;
8540;SDS011;4308;51.294;6.590;2023-04-03T04:18:06;3.40;;;2.60;;
8540;SDS011;4308;51.294;6.590;2023-04-03T04:20:34;6.07;;;2.90;;
8540;SDS011;4308;51.294;6.590;2023-04-03T04:23:02;5.37;;;2.70;;
8540;SDS011;4308;51.294;6.590;2023-04-03T04:25:29;4.27;;;2.60;;
8540;SDS011;4308;51.294;6.590;2023-04-03T04:27:57;5.03;;;2.70;;
8540;SDS011;4308;51.294;6.590;2023-04-03T04:30:24;5.63;;;3.00;;
8540;SDS011;4308;51.294;6.590;2023-04-03T04:32:52;3.97;;;2.70;;
8540;SDS011;4308;51.294;6.590;2023-04-03T04:35:19;9.23;;;2.70;;
8540;SDS011;4308;51.294;6.590;2023-04-03T04:37:47;5.57;;;2.77;;
8540;SDS011;4308;51.294;6.590;2023-04-03T04:40:15;4.30;;;2.70;;
8540;SDS011;4308;51.294;6.590;2023-04-03T04:42:42;6.20;;;2.97;;
8540;SDS011;4308;51.294;6.590;2023-04-03T04:45:10;6.30;;;2.33;;
8540;SDS011;4308;51.294;6.590;2023-04-03T04:47:38;4.70;;;3.23;;
8540;SDS011;4308;51.294;6.590;2023-04-03T04:50:05;5.67;;;2.70;;
8540;SDS011;4308;51.294;6.590;2023-04-03T04:52:33;6.23;;;2.33;;
8540;SDS011;4308;51.294;6.590;2023-04-03T04:55:00;5.30;;;2.57;;
8540;SDS011;4308;51.294;6.590;2023-04-03T04:57:28;5.47;;;1.90;;
8540;SDS011;4308;51.294;6.590;2023-04-03T04:59:56;2.17;;;1.90;;
8540;SDS011;4308;51.294;6.590;2023-04-03T05:02:23;5.80;;;2.40;;
8540;SDS011;4308;51.294;6.590;2023-04-03T05:04:51;6.47;;;3.00;;
8540;SDS011;4308;51.294;6.590;2023-04-03T05:07:18;4.03;;;2.47;;
8540;SDS011;4308;51.294;6.590;2023-04-03T05:09:46;4.83;;;2.70;;
8540;SDS011;4308;51.294;6.590;2023-04-03T05:12:13;3.90;;;2.23;;
8540;SDS011;4308;51.294;6.590;2023-04-03T05:14:41;7.30;;;2.57;;
8540;SDS011;4308;51.294;6.590;2023-04-03T05:17:09;5.67;;;2.67;;
8540;SDS011;4308;51.294;6.590;2023-04-03T05:19:36;8.97;;;2.77;;
8540;SDS011;4308;51.294;6.590;2023-04-03T05:22:04;3.20;;;2.33;;
8540;SDS011;4308;51.294;6.590;2023-04-03T05:24:31;4.53;;;3.10;;
8540;SDS011;4308;51.294;6.590;2023-04-03T05:26:59;4.73;;;2.03;;
8540;SDS011;4308;51.294;6.590;2023-04-03T05:29:26;4.70;;;2.33;;
8540;SDS011;4308;51.294;6.590;2023-04-03T05:31:54;4.97;;;2.00;;
8540;SDS011;4308;51.294;6.590;2023-04-03T05:34:22;3.13;;;2.00;;
8540;SDS011;4308;51.294;6.590;2023-04-03T05:36:49;2.03;;;1.33;;
8540;SDS011;4308;51.294;6.590;2023-04-03T05:39:17;5.37;;;2.27;;
8540;SDS011;4308;51.294;6.590;2023-04-03T05:41:44;6.40;;;3.70;;
8540;SDS011;4308;51.294;6.590;2023-04-03T05:44:12;3.77;;;1.93;;
8540;SDS011;4308;51.294;6.590;2023-04-03T05:46:39;3.70;;;1.70;;
8540;SDS011;4308;51.294;6.590;2023-04-03T05:49:07;4.97;;;2.30;;
8540;SDS011;4308;51.294;6.590;2023-04-03T05:51:35;4.57;;;2.30;;
8540;SDS011;4308;51.294;6.590;2023-04-03T05:54:08;3.40;;;1.80;;
8540;SDS011;4308;51.294;6.590;2023-04-03T05:56:37;2.97;;;1.93;;
8540;SDS011;4308;51.294;6.590;2023-04-03T05:59:04;1.90;;;1.67;;
8540;SDS011;4308;51.294;6.590;2023-04-03T06:01:32;4.30;;;1.87;;
8540;SDS011;4308;51.294;6.590;2023-04-03T06:03:59;7.47;;;1.40;;
8540;SDS011;4308;51.294;6.590;2023-04-03T06:06:42;9.00;;;2.37;;
8540;SDS011;4308;51.294;6.590;2023-04-03T06:09:10;5.87;;;2.03;;
8540;SDS011;4308;51.294;6.590;2023-04-03T06:11:37;5.93;;;1.40;;
8540;SDS011;4308;51.294;6.590;2023-04-03T06:14:05;8.73;;;2.77;;
8540;SDS011;4308;51.294;6.590;2023-04-03T06:16:32;3.40;;;1.83;;
8540;SDS011;4308;51.294;6.590;2023-04-03T06:19:02;3.57;;;2.07;;
8540;SDS011;4308;51.294;6.590;2023-04-03T06:21:29;4.47;;;1.73;;
8540;SDS011;4308;51.294;6.590;2023-04-03T06:23:57;3.07;;;2.07;;
8540;SDS011;4308;51.294;6.590;2023-04-03T06:26:25;5.90;;;2.23;;
8540;SDS011;4308;51.294;6.590;2023-04-03T06:28:52;6.07;;;2.77;;
8540;SDS011;4308;51.294;6.590;2023-04-03T06:31:20;3.53;;;1.90;;
8540;SDS011;4308;51.294;6.590;2023-04-03T06:33:47;3.10;;;1.80;;
8540;SDS011;4308;51.294;6.590;2023-04-03T06:36:15;4.93;;;2.03;;
8540;SDS011;4308;51.294;6.590;2023-04-03T06:38:44;3.80;;;1.50;;
8540;SDS011;4308;51.294;6.590;2023-04-03T06:41:12;2.30;;;2.00;;
8540;SDS011;4308;51.294;6.590;2023-04-03T06:43:39;4.17;;;2.03;;
8540;SDS011;4308;51.294;6.590;2023-04-03T06:46:12;12.77;;;2.20;;
8540;SDS011;4308;51.294;6.590;2023-04-03T06:48:41;6.77;;;2.30;;
8540;SDS011;4308;51.294;6.590;2023-04-03T06:51:15;5.33;;;2.17;;
8540;SDS011;4308;51.294;6.590;2023-04-03T06:53:44;7.03;;;1.93;;
8540;SDS011;4308;51.294;6.590;2023-04-03T06:56:11;3.43;;;1.97;;
8540;SDS011;4308;51.294;6.590;2023-04-03T06:58:39;5.40;;;2.10;;
8540;SDS011;4308;51.294;6.590;2023-04-03T07:01:08;4.07;;;1.97;;
8540;SDS011;4308;51.294;6.590;2023-04-03T07:03:36;6.03;;;2.57;;
8540;SDS011;4308;51.294;6.590;2023-04-03T07:06:04;4.87;;;2.10;;
8540;SDS011;4308;51.294;6.590;2023-04-03T07:08:33;5.23;;;2.60;;
8540;SDS011;4308;51.294;6.590;2023-04-03T07:11:00;4.03;;;2.13;;
8540;SDS011;4308;51.294;6.590;2023-04-03T07:13:28;7.67;;;1.87;;
8540;SDS011;4308;51.294;6.590;2023-04-03T07:15:55;9.70;;;2.30;;
8540;SDS011;4308;51.294;6.590;2023-04-03T07:18:23;4.67;;;1.90;;
8540;SDS011;4308;51.294;6.590;2023-04-03T07:20:51;3.77;;;1.60;;
8540;SDS011;4308;51.294;6.590;2023-04-03T07:23:18;5.40;;;2.40;;
8540;SDS011;4308;51.294;6.590;2023-04-03T07:25:47;5.73;;;1.90;;
8540;SDS011;4308;51.294;6.590;2023-04-03T07:28:15;4.60;;;1.60;;
8540;SDS011;4308;51.294;6.590;2023-04-03T07:33:11;7.73;;;2.63;;
8540;SDS011;4308;51.294;6.590;2023-04-03T07:35:40;3.23;;;1.67;;
8540;SDS011;4308;51.294;6.590;2023-04-03T07:38:08;4.73;;;1.50;;
8540;SDS011;4308;51.294;6.590;2023-04-03T07:40:36;8.83;;;2.93;;
8540;SDS011;4308;51.294;6.590;2023-04-03T07:43:04;9.00;;;2.37;;
8540;SDS011;4308;51.294;6.590;2023-04-03T07:45:34;2.37;;;2.00;;
8540;SDS011;4308;51.294;6.590;2023-04-03T07:48:02;8.07;;;2.57;;
8540;SDS011;4308;51.294;6.590;2023-04-03T07:50:30;2.73;;;1.90;;
8540;SDS011;4308;51.294;6.590;2023-04-03T07:52:57;3.70;;;1.20;;
8540;SDS011;4308;51.294;6.590;2023-04-03T07:55:25;3.57;;;1.90;;
8540;SDS011;4308;51.294;6.590;2023-04-03T07:57:53;6.40;;;2.30;;
8540;SDS011;4308;51.294;6.590;2023-04-03T08:00:20;6.40;;;1.70;;
8540;SDS011;4308;51.294;6.590;2023-04-03T08:02:48;7.10;;;2.23;;
8540;SDS011;4308;51.294;6.590;2023-04-03T08:05:17;4.93;;;1.53;;
8540;SDS011;4308;51.294;6.590;2023-04-03T08:07:45;5.73;;;2.17;;
8540;SDS011;4308;51.294;6.590;2023-04-03T08:10:12;3.77;;;1.87;;
8540;SDS011;4308;51.294;6.590;2023-04-03T08:12:41;6.23;;;1.73;;
8540;SDS011;4308;51.294;6.590;2023-04-03T08:15:09;3.57;;;1.50;;
8540;SDS011;4308;51.294;6.590;2023-04-03T08:17:36;2.77;;;2.00;;
8540;SDS011;4308;51.294;6.590;2023-04-03T08:20:04;2.80;;;1.50;;
8540;SDS011;4308;51.294;6.590;2023-04-03T08:22:32;3.03;;;1.80;;
8540;SDS011;4308;51.294;6.590;2023-04-03T08:25:03;3.53;;;1.73;;
8540;SDS011;4308;51.294;6.590;2023-04-03T08:27:31;2.87;;;1.50;;
8540;SDS011;4308;51.294;6.590;2023-04-03T08:30:01;2.57;;;1.33;;
8540;SDS011;4308;51.294;6.590;2023-04-03T08:32:28;4.17;;;1.57;;
8540;SDS011;4308;51.294;6.590;2023-04-03T08:34:56;1.90;;;1.30;;
8540;SDS011;4308;51.294;6.590;2023-04-03T08:37:24;4.27;;;1.50;;
8540;SDS011;4308;51.294;6.590;2023-04-03T08:39:51;3.03;;;1.03;;
8540;SDS011;4308;51.294;6.590;2023-04-03T08:45:00;2.83;;;1.97;;
8540;SDS011;4308;51.294;6.590;2023-04-03T08:47:42;7.33;;;1.50;;
8540;SDS011;4308;51.294;6.590;2023-04-03T08:50:13;3.70;;;1.00;;
8540;SDS011;4308;51.294;6.590;2023-04-03T08:52:46;2.03;;;1.53;;
8540;SDS011;4308;51.294;6.590;2023-04-03T08:57:56;3.40;;;1.47;;
8540;SDS011;4308;51.294;6.590;2023-04-03T09:00:25;2.50;;;1.63;;
8540;SDS011;4308;51.294;6.590;2023-04-03T09:02:55;4.23;;;1.37;;
8540;SDS011;4308;51.294;6.590;2023-04-03T09:08:00;2.03;;;1.10;;
8540;SDS011;4308;51.294;6.590;2023-04-03T09:10:30;5.33;;;1.40;;
8540;SDS011;4308;51.294;6.590;2023-04-03T09:13:08;1.20;;;1.10;;
8540;SDS011;4308;51.294;6.590;2023-04-03T09:15:40;1.33;;;1.10;;
8540;SDS011;4308;51.294;6.590;2023-04-03T09:18:20;1.50;;;1.00;;
8540;SDS011;4308;51.294;6.590;2023-04-03T09:26:03;3.83;;;1.10;;
8540;SDS011;4308;51.294;6.590;2023-04-03T09:28:33;1.40;;;1.27;;
8540;SDS011;4308;51.294;6.590;2023-04-03T09:31:16;1.57;;;1.07;;
8540;SDS011;4308;51.294;6.590;2023-04-03T09:33:46;2.43;;;1.07;;
8540;SDS011;4308;51.294;6.590;2023-04-03T09:36:22;1.27;;;1.17;;
8540;SDS011;4308;51.294;6.590;2023-04-03T09:39:03;4.03;;;1.37;;
8540;SDS011;4308;51.294;6.590;2023-04-03T09:41:31;2.23;;;0.90;;
8540;SDS011;4308;51.294;6.590;2023-04-03T09:43:59;2.40;;;1.00;;
8540;SDS011;4308;51.294;6.590;2023-04-03T09:46:33;1.43;;;1.27;;
8540;SDS011;4308;51.294;6.590;2023-04-03T09:49:02;2.60;;;1.07;;
8540;SDS011;4308;51.294;6.590;2023-04-03T09:51:35;2.00;;;1.00;;
8540;SDS011;4308;51.294;6.590;2023-04-03T09:54:23;0.80;;;0.70;;
8540;SDS011;4308;51.294;6.590;2023-04-03T09:56:51;0.67;;;0.63;;
8540;SDS011;4308;51.294;6.590;2023-04-03T09:59:20;0.93;;;0.90;;
8540;SDS011;4308;51.294;6.590;2023-04-03T10:01:58;2.60;;;1.23;;
8540;SDS011;4308;51.294;6.590;2023-04-03T10:04:27;1.10;;;0.90;;
8540;SDS011;4308;51.294;6.590;2023-04-03T10:07:03;1.83;;;0.90;;
8540;SDS011;4308;51.294;6.590;2023-04-03T10:10:34;1.83;;;0.93;;
8540;SDS011;4308;51.294;6.590;2023-04-03T10:12:42;2.00;;;1.00;;
8540;SDS011;4308;51.294;6.590;2023-04-03T10:15:11;2.80;;;0.93;;
8540;SDS011;4308;51.294;6.590;2023-04-03T10:20:39;2.80;;;0.97;;
8540;SDS011;4308;51.294;6.590;2023-04-03T10:28:40;2.67;;;1.13;;
8540;SDS011;4308;51.294;6.590;2023-04-03T10:31:21;2.50;;;1.20;;
8540;SDS011;4308;51.294;6.590;2023-04-03T10:51:45;6.43;;;1.30;;
8540;SDS011;4308;51.294;6.590;2023-04-03T10:56:51;1.83;;;1.20;;
8540;SDS011;4308;51.294;6.590;2023-04-03T10:59:38;4.87;;;1.70;;
8540;SDS011;4308;51.294;6.590;2023-04-03T11:04:51;3.63;;;1.30;;
8540;SDS011;4308;51.294;6.590;2023-04-03T11:07:24;2.87;;;1.00;;
8540;SDS011;4308;51.294;6.590;2023-04-03T11:09:57;1.83;;;1.10;;
8540;SDS011;4308;51.294;6.590;2023-04-03T11:12:30;2.07;;;1.17;;
8540;SDS011;4308;51.294;6.590;2023-04-03T11:15:00;1.70;;;1.40;;
8540;SDS011;4308;51.294;6.590;2023-04-03T11:17:39;2.37;;;1.40;;
8540;SDS011;4308;51.294;6.590;2023-04-03T11:20:19;1.57;;;1.20;;
8540;SDS011;4308;51.294;6.590;2023-04-03T11:22:53;3.00;;;1.23;;
8540;SDS011;4308;51.294;6.590;2023-04-03T11:25:25;3.30;;;1.27;;
8540;SDS011;4308;51.294;6.590;2023-04-03T11:27:59;2.00;;;1.20;;
8540;SDS011;4308;51.294;6.590;2023-04-03T11:30:30;1.80;;;1.03;;
8540;SDS011;4308;51.294;6.590;2023-04-03T11:35:30;2.93;;;1.10;;
8540;SDS011;4308;51.294;6.590;2023-04-03T11:37:59;2.73;;;1.27;;
8540;SDS011;4308;51.294;6.590;2023-04-03T11:40:34;1.97;;;1.23;;
8540;SDS011;4308;51.294;6.590;2023-04-03T11:43:07;1.33;;;1.10;;
8540;SDS011;4308;51.294;6.590;2023-04-03T11:50:55;2.73;;;1.30;;
8540;SDS011;4308;51.294;6.590;2023-04-03T11:53:28;2.10;;;1.57;;
8540;SDS011;4308;51.294;6.590;2023-04-03T11:55:57;4.43;;;1.00;;
8540;SDS011;4308;51.294;6.590;2023-04-03T11:58:34;2.33;;;1.53;;
8540;SDS011;4308;51.294;6.590;2023-04-03T12:03:33;3.77;;;1.43;;
8540;SDS011;4308;51.294;6.590;2023-04-03T12:16:20;3.07;;;1.50;;
8540;SDS011;4308;51.294;6.590;2023-04-03T12:21:17;1.60;;;0.90;;
8540;SDS011;4308;51.294;6.590;2023-04-03T12:29:21;2.20;;;1.13;;
8540;SDS011;4308;51.294;6.590;2023-04-03T12:31:54;1.27;;;1.03;;
8540;SDS011;4308;51.294;6.590;2023-04-03T12:34:26;14.43;;;1.30;;
8540;SDS011;4308;51.294;6.590;2023-04-03T12:37:00;6.73;;;1.20;;
8540;SDS011;4308;51.294;6.590;2023-04-03T12:47:42;1.33;;;1.20;;
8540;SDS011;4308;51.294;6.590;2023-04-03T12:50:23;1.40;;;1.10;;
8540;SDS011;4308;51.294;6.590;2023-04-03T12:52:54;1.70;;;1.10;;
8540;SDS011;4308;51.294;6.590;2023-04-03T12:55:24;1.43;;;1.10;;
8540;SDS011;4308;51.294;6.590;2023-04-03T12:57:51;2.63;;;1.23;;
8540;SDS011;4308;51.294;6.590;2023-04-03T13:00:27;2.20;;;1.20;;
8540;SDS011;4308;51.294;6.590;2023-04-03T13:02:55;2.57;;;1.07;;
8540;SDS011;4308;51.294;6.590;2023-04-03T13:05:23;2.40;;;1.47;;
8540;SDS011;4308;51.294;6.590;2023-04-03T13:07:58;1.67;;;1.07;;
8540;SDS011;4308;51.294;6.590;2023-04-03T13:10:27;1.27;;;1.17;;
8540;SDS011;4308;51.294;6.590;2023-04-03T13:12:56;2.07;;;1.10;;
8540;SDS011;4308;51.294;6.590;2023-04-03T13:15:28;1.97;;;0.97;;
8540;SDS011;4308;51.294;6.590;2023-04-03T13:17:57;1.23;;;1.13;;
8540;SDS011;4308;51.294;6.590;2023-04-03T13:20:31;1.30;;;1.07;;
8540;SDS011;4308;51.294;6.590;2023-04-03T13:25:29;3.70;;;1.20;;
8540;SDS011;4308;51.294;6.590;2023-04-03T13:27:58;1.73;;;1.20;;
8540;SDS011;4308;51.294;6.590;2023-04-03T13:30:40;1.80;;;1.10;;
8540;SDS011;4308;51.294;6.590;2023-04-03T13:33:22;1.53;;;1.40;;
8540;SDS011;4308;51.294;6.590;2023-04-03T13:36:34;1.10;;;1.00;;
8540;SDS011;4308;51.294;6.590;2023-04-03T13:38:41;2.63;;;1.43;;
8540;SDS011;4308;51.294;6.590;2023-04-03T13:46:50;6.47;;;1.60;;
8540;SDS011;4308;51.294;6.590;2023-04-03T13:49:22;1.63;;;1.10;;
8540;SDS011;4308;51.294;6.590;2023-04-03T13:51:55;1.60;;;1.17;;
8540;SDS011;4308;51.294;6.590;2023-04-03T13:54:37;1.70;;;1.00;;
8540;SDS011;4308;51.294;6.590;2023-04-03T13:57:12;1.67;;;1.17;;
8540;SDS011;4308;51.294;6.590;2023-04-03T13:59:40;1.33;;;0.90;;
8540;SDS011;4308;51.294;6.590;2023-04-03T14:07:13;3.80;;;1.33;;
8540;SDS011;4308;51.294;6.590;2023-04-03T14:09:41;2.07;;;1.00;;
8540;SDS011;4308;51.294;6.590;2023-04-03T14:12:14;1.47;;;1.20;;
8540;SDS011;4308;51.294;6.590;2023-04-03T14:14:57;1.70;;;1.27;;
8540;SDS011;4308;51.294;6.590;2023-04-03T14:17:25;2.90;;;1.30;;
8540;SDS011;4308;51.294;6.590;2023-04-03T14:19:53;1.73;;;1.20;;
8540;SDS011;4308;51.294;6.590;2023-04-03T14:22:23;2.53;;;1.20;;
8540;SDS011;4308;51.294;6.590;2023-04-03T14:24:52;3.23;;;1.03;;
8540;SDS011;4308;51.294;6.590;2023-04-03T14:27:24;2.43;;;1.00;;
8540;SDS011;4308;51.294;6.590;2023-04-03T14:29:56;2.33;;;1.27;;
8540;SDS011;4308;51.294;6.590;2023-04-03T14:32:24;3.33;;;1.27;;
8540;SDS011;4308;51.294;6.590;2023-04-03T14:34:52;2.90;;;1.17;;
8540;SDS011;4308;51.294;6.590;2023-04-03T14:37:22;1.00;;;1.00;;
8540;SDS011;4308;51.294;6.590;2023-04-03T14:39:50;4.13;;;1.30;;
8540;SDS011;4308;51.294;6.590;2023-04-03T14:42:19;2.30;;;1.43;;
8540;SDS011;4308;51.294;6.590;2023-04-03T14:44:47;2.13;;;1.13;;
8540;SDS011;4308;51.294;6.590;2023-04-03T14:47:19;4.93;;;1.30;;
8540;SDS011;4308;51.294;6.590;2023-04-03T14:49:58;2.20;;;1.20;;
8540;SDS011;4308;51.294;6.590;2023-04-03T14:52:27;2.20;;;1.10;;
8540;SDS011;4308;51.294;6.590;2023-04-03T14:54:55;1.93;;;1.10;;
8540;SDS011;4308;51.294;6.590;2023-04-03T14:57:23;0.80;;;0.80;;
8540;SDS011;4308;51.294;6.590;2023-04-03T14:59:51;4.87;;;1.67;;
8540;SDS011;4308;51.294;6.590;2023-04-03T15:02:29;3.23;;;1.27;;
8540;SDS011;4308;51.294;6.590;2023-04-03T15:04:58;1.53;;;1.10;;
8540;SDS011;4308;51.294;6.590;2023-04-03T15:07:27;2.00;;;1.13;;
8540;SDS011;4308;51.294;6.590;2023-04-03T15:09:55;1.73;;;1.20;;
8540;SDS011;4308;51.294;6.590;2023-04-03T15:12:23;1.47;;;1.20;;
8540;SDS011;4308;51.294;6.590;2023-04-03T15:14:50;2.47;;;1.30;;
8540;SDS011;4308;51.294;6.590;2023-04-03T15:17:27;1.20;;;1.10;;
8540;SDS011;4308;51.294;6.590;2023-04-03T15:19:55;4.37;;;1.40;;
8540;SDS011;4308;51.294;6.590;2023-04-03T15:22:22;2.37;;;1.30;;
8540;SDS011;4308;51.294;6.590;2023-04-03T15:24:50;2.33;;;1.23;;
8540;SDS011;4308;51.294;6.590;2023-04-03T15:27:20;3.37;;;1.17;;
8540;SDS011;4308;51.294;6.590;2023-04-03T15:29:47;2.27;;;1.10;;
8540;SDS011;4308;51.294;6.590;2023-04-03T15:32:15;1.57;;;1.30;;
8540;SDS011;4308;51.294;6.590;2023-04-03T15:34:42;2.27;;;1.30;;
8540;SDS011;4308;51.294;6.590;2023-04-03T15:37:10;1.50;;;1.40;;
8540;SDS011;4308;51.294;6.590;2023-04-03T15:39:38;3.20;;;1.20;;
8540;SDS011;4308;51.294;6.590;2023-04-03T15:42:05;2.80;;;1.27;;
8540;SDS011;4308;51.294;6.590;2023-04-03T15:44:33;3.60;;;1.37;;
8540;SDS011;4308;51.294;6.590;2023-04-03T15:47:01;1.90;;;1.10;;
8540;SDS011;4308;51.294;6.590;2023-04-03T15:49:30;2.60;;;1.20;;
8540;SDS011;4308;51.294;6.590;2023-04-03T15:51:58;2.43;;;1.70;;
8540;SDS011;4308;51.294;6.590;2023-04-03T15:54:25;3.33;;;1.43;;
8540;SDS011;4308;51.294;6.590;2023-04-03T15:56:53;2.70;;;1.40;;
8540;SDS011;4308;51.294;6.590;2023-04-03T15:59:21;2.90;;;1.53;;
8540;SDS011;4308;51.294;6.590;2023-04-03T16:01:49;5.43;;;1.97;;
8540;SDS011;4308;51.294;6.590;2023-04-03T16:04:17;5.33;;;1.90;;
8540;SDS011;4308;51.294;6.590;2023-04-03T16:06:46;3.63;;;1.70;;
8540;SDS011;4308;51.294;6.590;2023-04-03T16:09:13;1.60;;;1.20;;
8540;SDS011;4308;51.294;6.590;2023-04-03T16:11:41;3.60;;;1.00;;
8540;SDS011;4308;51.294;6.590;2023-04-03T16:14:09;2.57;;;1.37;;
8540;SDS011;4308;51.294;6.590;2023-04-03T16:16:37;1.27;;;1.07;;
8540;SDS011;4308;51.294;6.590;2023-04-03T16:19:04;3.60;;;1.33;;
8540;SDS011;4308;51.294;6.590;2023-04-03T16:21:32;3.50;;;1.23;;
8540;SDS011;4308;51.294;6.590;2023-04-03T16:24:00;2.60;;;1.20;;
8540;SDS011;4308;51.294;6.590;2023-04-03T16:26:28;3.37;;;1.00;;
8540;SDS011;4308;51.294;6.590;2023-04-03T16:28:56;2.77;;;1.43;;
8540;SDS011;4308;51.294;6.590;2023-04-03T16:31:24;3.73;;;0.90;;
8540;SDS011;4308;51.294;6.590;2023-04-03T16:33:52;3.90;;;1.40;;
8540;SDS011;4308;51.294;6.590;2023-04-03T16:36:20;1.97;;;1.17;;
8540;SDS011;4308;51.294;6.590;2023-04-03T16:38:47;3.70;;;1.33;;
8540;SDS011;4308;51.294;6.590;2023-04-03T16:41:17;3.77;;;1.50;;
8540;SDS011;4308;51.294;6.590;2023-04-03T16:43:44;2.30;;;1.10;;
8540;SDS011;4308;51.294;6.590;2023-04-03T16:46:12;3.37;;;1.43;;
8540;SDS011;4308;51.294;6.590;2023-04-03T16:48:39;2.67;;;1.40;;
8540;SDS011;4308;51.294;6.590;2023-04-03T16:51:07;2.20;;;1.10;;
8540;SDS011;4308;51.294;6.590;2023-04-03T16:53:35;3.90;;;1.50;;
8540;SDS011;4308;51.294;6.590;2023-04-03T16:56:02;1.63;;;0.93;;
8540;SDS011;4308;51.294;6.590;2023-04-03T16:58:30;3.00;;;1.70;;
8540;SDS011;4308;51.294;6.590;2023-04-03T17:00:58;7.40;;;1.27;;
8540;SDS011;4308;51.294;6.590;2023-04-03T17:03:25;4.57;;;1.23;;
8540;SDS011;4308;51.294;6.590;2023-04-03T17:05:53;3.80;;;1.40;;
8540;SDS011;4308;51.294;6.590;2023-04-03T17:08:20;2.10;;;1.50;;
8540;SDS011;4308;51.294;6.590;2023-04-03T17:10:48;2.70;;;1.00;;